Time;durP1;ratioP1;P1;durP2;ratioP2;P2;SDS_P1;SDS_P2;PMS_P1;PMS_P2;Temp;Humidity;BMP_temperature;BMP_pressure;BME280_temperature;BME280_humidity;BME280_pressure;Samples;Min_cycle;Max_cycle;Signal;HPM_P1;HPM_P2
2021/09/29 00:00:07;;;;;;;9.80;3.30;;;;;;;;;;4949725;28;20113;-55
2021/09/29 00:02:33;;;;;;;6.72;3.15;;;;;;;;;;4961295;28;20054;-55
2021/09/29 00:04:58;;;;;;;10.70;3.28;;;;;;;;;;4952832;28;20105;-56
2021/09/29 00:07:23;;;;;;;9.88;3.20;;;;;;;;;;4949161;28;20493;-56
2021/09/29 00:09:49;;;;;;;10.75;3.40;;;;;;;;;;4950835;28;20390;-55
2021/09/29 00:12:14;;;;;;;11.18;3.63;;;;;;;;;;4950244;28;20286;-56
2021/09/29 00:14:39;;;;;;;10.32;3.25;;;;;;;;;;4951126;28;20036;-56
2021/09/29 00:17:04;;;;;;;12.20;3.78;;;;;;;;;;4949959;28;20109;-55
2021/09/29 00:19:29;;;;;;;12.73;3.35;;;;;;;;;;4950369;28;20023;-56
2021/09/29 00:21:55;;;;;;;10.02;3.45;;;;;;;;;;4949452;28;20098;-56
2021/09/29 00:24:20;;;;;;;10.32;3.13;;;;;;;;;;4950073;28;20038;-55
2021/09/29 00:26:45;;;;;;;7.18;3.28;;;;;;;;;;4950393;28;20035;-56
2021/09/29 00:29:11;;;;;;;12.68;3.80;;;;;;;;;;4950319;28;20053;-56
2021/09/29 00:31:38;;;;;;;8.60;2.95;;;;;;;;;;4954615;28;20042;-57
2021/09/29 00:34:08;;;;;;;9.55;3.60;;;;;;;;;;4949452;28;20042;-61
2021/09/29 00:36:38;;;;;;;9.32;3.40;;;;;;;;;;4955427;28;20058;-55
2021/09/29 00:39:03;;;;;;;12.05;3.53;;;;;;;;;;4950581;28;20406;-56
2021/09/29 00:41:28;;;;;;;9.90;2.95;;;;;;;;;;4951247;28;20458;-55
2021/09/29 00:43:53;;;;;;;9.05;3.92;;;;;;;;;;4950536;28;20027;-57
2021/09/29 00:46:19;;;;;;;11.98;3.67;;;;;;;;;;4949598;28;20046;-55
2021/09/29 00:48:44;;;;;;;6.75;3.30;;;;;;;;;;4950228;28;20100;-56
2021/09/29 00:51:10;;;;;;;7.95;2.97;;;;;;;;;;4959153;28;20043;-56
2021/09/29 00:53:35;;;;;;;9.27;3.28;;;;;;;;;;4950993;28;20034;-55
2021/09/29 00:56:01;;;;;;;7.78;3.60;;;;;;;;;;4957061;28;20117;-55
2021/09/29 00:58:26;;;;;;;12.05;3.53;;;;;;;;;;4950760;28;20079;-57
2021/09/29 01:00:52;;;;;;;8.57;3.63;;;;;;;;;;4955253;28;20126;-55
2021/09/29 01:03:17;;;;;;;8.63;3.60;;;;;;;;;;4953908;28;20031;-55
2021/09/29 01:05:42;;;;;;;12.18;3.70;;;;;;;;;;4949675;28;20039;-56
2021/09/29 01:08:14;;;;;;;8.32;3.33;;;;;;;;;;4950792;28;20038;-55
2021/09/29 01:10:49;;;;;;;9.60;3.40;;;;;;;;;;4950421;28;20046;-56
2021/09/29 01:13:18;;;;;;;12.52;4.30;;;;;;;;;;4953298;28;20027;-56
2021/09/29 01:15:45;;;;;;;9.00;3.50;;;;;;;;;;4962521;28;20397;-56
2021/09/29 01:18:10;;;;;;;9.63;3.20;;;;;;;;;;4953829;28;20027;-56
2021/09/29 01:20:43;;;;;;;11.63;3.97;;;;;;;;;;4960731;28;20187;-56
2021/09/29 01:23:23;;;;;;;15.35;4.40;;;;;;;;;;4957187;28;20039;-55
2021/09/29 01:25:58;;;;;;;10.15;4.03;;;;;;;;;;4952030;28;20517;-55
2021/09/29 01:28:29;;;;;;;12.68;4.10;;;;;;;;;;4953199;28;20047;-56
2021/09/29 01:30:54;;;;;;;13.70;4.57;;;;;;;;;;4952286;28;20515;-55
2021/09/29 01:33:19;;;;;;;8.10;3.80;;;;;;;;;;4957186;28;20034;-55
2021/09/29 01:35:44;;;;;;;8.80;3.90;;;;;;;;;;4961834;28;20493;-56
2021/09/29 01:38:09;;;;;;;13.27;4.22;;;;;;;;;;4961185;28;20043;-56
2021/09/29 01:40:35;;;;;;;9.90;3.80;;;;;;;;;;4966280;28;20371;-56
2021/09/29 01:43:00;;;;;;;10.63;3.83;;;;;;;;;;4953589;28;20023;-55
2021/09/29 01:45:25;;;;;;;9.70;4.35;;;;;;;;;;4953079;28;20039;-55
2021/09/29 01:47:50;;;;;;;11.90;4.10;;;;;;;;;;4953367;28;20019;-56
2021/09/29 01:50:20;;;;;;;8.98;3.88;;;;;;;;;;4952859;28;20042;-56
2021/09/29 01:52:45;;;;;;;7.30;3.93;;;;;;;;;;4956295;28;20038;-56
2021/09/29 01:55:12;;;;;;;10.48;3.88;;;;;;;;;;4959448;28;20300;-55
2021/09/29 01:57:37;;;;;;;13.95;4.00;;;;;;;;;;4962787;28;20472;-56
2021/09/29 02:00:04;;;;;;;11.20;4.38;;;;;;;;;;4956471;28;20110;-55
2021/09/29 02:02:29;;;;;;;9.00;3.88;;;;;;;;;;4953171;28;20026;-55
2021/09/29 02:04:54;;;;;;;10.60;4.10;;;;;;;;;;4959709;28;20031;-56
2021/09/29 02:07:19;;;;;;;15.98;4.82;;;;;;;;;;4953707;28;20118;-55
2021/09/29 02:09:45;;;;;;;8.77;3.85;;;;;;;;;;4966529;28;20027;-55
2021/09/29 02:12:10;;;;;;;10.82;4.28;;;;;;;;;;4964803;28;20130;-55
2021/09/29 02:14:35;;;;;;;8.88;3.67;;;;;;;;;;4952397;28;20500;-55
2021/09/29 02:17:00;;;;;;;7.43;3.92;;;;;;;;;;4952067;28;20096;-55
2021/09/29 02:19:26;;;;;;;9.02;4.07;;;;;;;;;;4953134;28;20027;-56
2021/09/29 02:21:51;;;;;;;12.90;4.63;;;;;;;;;;4953692;28;20035;-55
2021/09/29 02:24:16;;;;;;;14.27;4.13;;;;;;;;;;4955172;28;20422;-55
2021/09/29 02:26:42;;;;;;;7.65;3.55;;;;;;;;;;4951310;28;20046;-56
2021/09/29 02:29:07;;;;;;;6.03;3.47;;;;;;;;;;4951736;28;20110;-55
2021/09/29 02:31:32;;;;;;;11.45;4.20;;;;;;;;;;4960089;28;20102;-55
2021/09/29 02:33:57;;;;;;;13.15;4.30;;;;;;;;;;4955860;28;20031;-55
2021/09/29 02:36:23;;;;;;;10.00;4.10;;;;;;;;;;4951270;28;20059;-55
2021/09/29 02:38:51;;;;;;;11.60;4.03;;;;;;;;;;4952724;28;20030;-55
2021/09/29 02:41:16;;;;;;;12.95;4.68;;;;;;;;;;4952168;28;20048;-55
2021/09/29 02:43:41;;;;;;;11.15;4.22;;;;;;;;;;4952135;28;20023;-56
2021/09/29 02:46:06;;;;;;;11.77;5.45;;;;;;;;;;4961066;28;20066;-56
2021/09/29 02:48:32;;;;;;;12.77;4.18;;;;;;;;;;4955086;28;20401;-55
2021/09/29 02:50:57;;;;;;;11.55;4.63;;;;;;;;;;4959583;28;20035;-56
2021/09/29 02:53:22;;;;;;;8.63;4.20;;;;;;;;;;4951378;28;20046;-55
2021/09/29 02:55:47;;;;;;;10.00;4.10;;;;;;;;;;4952197;28;20047;-55
2021/09/29 02:58:13;;;;;;;9.82;4.00;;;;;;;;;;4952524;28;20023;-56
2021/09/29 03:00:38;;;;;;;11.90;4.55;;;;;;;;;;4952135;28;20380;-55
2021/09/29 03:03:03;;;;;;;13.73;4.78;;;;;;;;;;4956935;28;20097;-55
2021/09/29 03:05:28;;;;;;;11.07;4.35;;;;;;;;;;4951203;28;20492;-57
2021/09/29 03:07:53;;;;;;;10.48;4.82;;;;;;;;;;4952214;28;20490;-55
2021/09/29 03:10:19;;;;;;;9.32;4.65;;;;;;;;;;4956518;28;20061;-55
2021/09/29 03:12:44;;;;;;;13.20;4.85;;;;;;;;;;4953381;28;20149;-55
2021/09/29 03:15:09;;;;;;;10.38;4.75;;;;;;;;;;4955705;28;20038;-56
2021/09/29 03:17:35;;;;;;;13.35;5.00;;;;;;;;;;4954779;28;20023;-55
2021/09/29 03:20:00;;;;;;;11.10;4.65;;;;;;;;;;4952085;28;20031;-55
2021/09/29 03:22:25;;;;;;;11.65;4.65;;;;;;;;;;4953613;28;20561;-55
2021/09/29 03:24:50;;;;;;;9.57;4.63;;;;;;;;;;4951983;28;20038;-56
2021/09/29 03:27:16;;;;;;;11.50;4.80;;;;;;;;;;4951076;28;20053;-56
2021/09/29 03:29:41;;;;;;;14.23;4.70;;;;;;;;;;4950562;28;20509;-55
2021/09/29 03:32:06;;;;;;;9.73;4.93;;;;;;;;;;4963224;28;20027;-55
2021/09/29 03:34:31;;;;;;;13.07;5.22;;;;;;;;;;4953530;28;20121;-55
2021/09/29 03:36:57;;;;;;;16.85;6.20;;;;;;;;;;4949876;28;20043;-56
2021/09/29 03:39:22;;;;;;;15.00;5.18;;;;;;;;;;4951351;28;20063;-55
2021/09/29 03:41:48;;;;;;;9.65;5.20;;;;;;;;;;4951608;28;20081;-56
2021/09/29 03:44:13;;;;;;;11.43;6.00;;;;;;;;;;4951291;28;20023;-56
2021/09/29 03:46:38;;;;;;;8.27;5.18;;;;;;;;;;4950400;28;20062;-56
2021/09/29 03:49:05;;;;;;;14.70;5.97;;;;;;;;;;4951630;28;20027;-55
2021/09/29 03:51:30;;;;;;;9.90;5.30;;;;;;;;;;4958179;28;20043;-56
2021/09/29 03:53:55;;;;;;;11.18;5.00;;;;;;;;;;4951157;28;20434;-56
2021/09/29 03:56:20;;;;;;;11.02;5.35;;;;;;;;;;4953550;28;20134;-56
2021/09/29 03:58:46;;;;;;;10.80;5.03;;;;;;;;;;4949625;28;20035;-56
2021/09/29 04:01:11;;;;;;;8.15;5.03;;;;;;;;;;4957492;28;20560;-56
2021/09/29 04:03:36;;;;;;;9.30;5.25;;;;;;;;;;4950844;28;20039;-56
2021/09/29 04:06:01;;;;;;;10.13;4.95;;;;;;;;;;4952736;28;20541;-54
2021/09/29 04:08:27;;;;;;;9.50;4.47;;;;;;;;;;4953950;28;20031;-56
2021/09/29 04:10:55;;;;;;;14.25;4.53;;;;;;;;;;4954398;28;20073;-55
2021/09/29 04:13:20;;;;;;;14.48;4.25;;;;;;;;;;4950962;28;20031;-55
2021/09/29 04:15:45;;;;;;;7.30;4.15;;;;;;;;;;4950241;28;20046;-56
2021/09/29 04:18:11;;;;;;;8.85;4.45;;;;;;;;;;4951345;28;20015;-55
2021/09/29 04:20:36;;;;;;;12.43;4.65;;;;;;;;;;4958020;28;20126;-55
2021/09/29 04:23:01;;;;;;;11.30;4.70;;;;;;;;;;4949887;28;20046;-55
2021/09/29 04:25:26;;;;;;;9.82;4.30;;;;;;;;;;4950830;28;20047;-56
2021/09/29 04:27:52;;;;;;;9.45;4.72;;;;;;;;;;4950453;28;20110;-55
2021/09/29 04:30:17;;;;;;;9.95;4.40;;;;;;;;;;4955431;28;20086;-57
2021/09/29 04:32:43;;;;;;;10.90;4.63;;;;;;;;;;4948225;28;20062;-57
2021/09/29 04:35:08;;;;;;;10.20;4.35;;;;;;;;;;4956836;28;20130;-57
2021/09/29 04:37:33;;;;;;;8.98;4.35;;;;;;;;;;4955254;28;20082;-56
2021/09/29 04:39:59;;;;;;;14.98;4.80;;;;;;;;;;4950612;28;20130;-57
2021/09/29 04:42:24;;;;;;;9.20;4.28;;;;;;;;;;4950051;28;20412;-55
2021/09/29 04:44:49;;;;;;;11.98;4.20;;;;;;;;;;4950691;28;20074;-56
2021/09/29 04:47:14;;;;;;;15.27;4.30;;;;;;;;;;4950325;28;20039;-56
2021/09/29 04:49:39;;;;;;;8.90;3.70;;;;;;;;;;4954305;28;20023;-56
2021/09/29 04:52:05;;;;;;;21.85;4.47;;;;;;;;;;4949860;28;20035;-56
2021/09/29 04:54:30;;;;;;;7.68;4.13;;;;;;;;;;4954557;28;20035;-57
2021/09/29 04:56:56;;;;;;;8.38;3.72;;;;;;;;;;4952974;28;20031;-56
2021/09/29 04:59:21;;;;;;;8.50;4.20;;;;;;;;;;4950852;28;20486;-56
2021/09/29 05:01:46;;;;;;;11.82;4.10;;;;;;;;;;4950162;28;20098;-57
2021/09/29 05:04:11;;;;;;;9.20;4.43;;;;;;;;;;4950986;28;20031;-56
2021/09/29 05:06:37;;;;;;;15.95;4.90;;;;;;;;;;4950076;28;20338;-59
2021/09/29 05:09:02;;;;;;;11.88;4.68;;;;;;;;;;4952024;28;20057;-56
2021/09/29 05:11:40;;;;;;;12.40;4.97;;;;;;;;;;4953163;28;20130;-56
2021/09/29 05:14:05;;;;;;;9.93;4.88;;;;;;;;;;4950548;28;20031;-55
2021/09/29 05:16:31;;;;;;;8.60;4.75;;;;;;;;;;4953230;28;20031;-56
2021/09/29 05:18:56;;;;;;;14.00;5.80;;;;;;;;;;4954080;28;20023;-56
2021/09/29 05:21:21;;;;;;;16.40;5.30;;;;;;;;;;4959212;28;20054;-57
2021/09/29 05:23:46;;;;;;;11.98;5.90;;;;;;;;;;4950503;28;20046;-56
2021/09/29 05:26:11;;;;;;;10.30;5.53;;;;;;;;;;4950041;28;20035;-56
2021/09/29 05:28:37;;;;;;;11.02;5.63;;;;;;;;;;4950094;28;20070;-56
2021/09/29 05:31:02;;;;;;;16.63;5.45;;;;;;;;;;4950172;28;20043;-56
2021/09/29 05:33:28;;;;;;;10.55;6.10;;;;;;;;;;4950852;28;20034;-56
2021/09/29 05:35:53;;;;;;;11.35;6.13;;;;;;;;;;4949454;28;20043;-56
2021/09/29 05:38:18;;;;;;;7.45;5.40;;;;;;;;;;4950293;28;20022;-56
2021/09/29 05:40:43;;;;;;;12.10;6.30;;;;;;;;;;4949176;28;20374;-56
2021/09/29 05:43:09;;;;;;;11.35;6.10;;;;;;;;;;4954667;28;20027;-55
2021/09/29 05:45:34;;;;;;;15.63;5.97;;;;;;;;;;4950059;28;20119;-56
2021/09/29 05:47:59;;;;;;;13.80;6.45;;;;;;;;;;4950751;28;20015;-56
2021/09/29 05:50:24;;;;;;;10.73;5.68;;;;;;;;;;4949087;28;20037;-56
2021/09/29 05:52:50;;;;;;;12.23;5.75;;;;;;;;;;4950860;28;20473;-56
2021/09/29 05:55:15;;;;;;;9.10;5.97;;;;;;;;;;4949641;28;20514;-56
2021/09/29 05:57:41;;;;;;;9.27;5.88;;;;;;;;;;4950229;28;20102;-56
2021/09/29 06:00:06;;;;;;;11.25;5.07;;;;;;;;;;4950166;28;20023;-57
2021/09/29 06:02:31;;;;;;;11.45;5.93;;;;;;;;;;4954003;28;20034;-57
2021/09/29 06:04:57;;;;;;;8.98;4.35;;;;;;;;;;4953773;28;20035;-56
2021/09/29 06:07:22;;;;;;;8.43;4.07;;;;;;;;;;4953016;28;20035;-57
2021/09/29 06:09:47;;;;;;;9.63;4.38;;;;;;;;;;4961962;28;20086;-57
2021/09/29 06:12:13;;;;;;;8.23;4.30;;;;;;;;;;4956689;28;20090;-57
2021/09/29 06:14:40;;;;;;;8.38;4.00;;;;;;;;;;4954014;28;20101;-57
2021/09/29 06:17:13;;;;;;;11.50;4.75;;;;;;;;;;4957368;28;20497;-56
2021/09/29 06:19:38;;;;;;;12.55;4.88;;;;;;;;;;4963469;28;20553;-56
2021/09/29 06:22:04;;;;;;;8.13;4.38;;;;;;;;;;4953423;28;20133;-56
2021/09/29 06:24:30;;;;;;;8.68;4.53;;;;;;;;;;4953745;28;20027;-56
2021/09/29 06:26:56;;;;;;;8.88;5.03;;;;;;;;;;4957504;28;20031;-56
2021/09/29 06:29:21;;;;;;;15.65;5.00;;;;;;;;;;4954601;28;20055;-56
2021/09/29 06:31:47;;;;;;;10.18;5.18;;;;;;;;;;4955480;28;20046;-56
2021/09/29 06:34:12;;;;;;;12.32;5.00;;;;;;;;;;4954796;28;20035;-56
2021/09/29 06:36:37;;;;;;;9.88;5.10;;;;;;;;;;4956498;28;20039;-56
2021/09/29 06:39:02;;;;;;;11.60;4.90;;;;;;;;;;4956988;28;20114;-56
2021/09/29 06:41:28;;;;;;;8.55;5.15;;;;;;;;;;4952354;28;20043;-56
2021/09/29 06:43:53;;;;;;;7.82;4.60;;;;;;;;;;4952922;28;20033;-55
2021/09/29 06:46:18;;;;;;;13.85;5.38;;;;;;;;;;4952683;28;20050;-55
2021/09/29 06:48:43;;;;;;;11.70;4.60;;;;;;;;;;4956285;28;20035;-56
2021/09/29 06:51:09;;;;;;;12.23;4.88;;;;;;;;;;4951971;28;20430;-57
2021/09/29 06:53:34;;;;;;;9.52;5.20;;;;;;;;;;4953240;28;20470;-56
2021/09/29 06:56:05;;;;;;;11.70;5.32;;;;;;;;;;4952099;28;20551;-56
2021/09/29 06:58:30;;;;;;;11.45;5.60;;;;;;;;;;4953196;28;20102;-57
2021/09/29 07:00:55;;;;;;;7.68;4.78;;;;;;;;;;4952286;28;20383;-57
2021/09/29 07:03:22;;;;;;;10.65;5.75;;;;;;;;;;4953376;28;20054;-56
2021/09/29 07:05:47;;;;;;;11.75;4.90;;;;;;;;;;4950902;28;20038;-57
2021/09/29 07:08:12;;;;;;;12.55;5.05;;;;;;;;;;4952129;28;20019;-56
2021/09/29 07:10:38;;;;;;;10.27;4.53;;;;;;;;;;4955677;28;20051;-57
2021/09/29 07:13:03;;;;;;;13.70;5.05;;;;;;;;;;4953292;28;20026;-57
2021/09/29 07:15:28;;;;;;;9.07;4.57;;;;;;;;;;4951712;28;20039;-55
2021/09/29 07:17:58;;;;;;;9.27;4.50;;;;;;;;;;4952924;28;20030;-56
2021/09/29 07:20:23;;;;;;;10.23;4.30;;;;;;;;;;4951368;28;20390;-57
2021/09/29 07:22:48;;;;;;;15.65;4.35;;;;;;;;;;4956943;28;20089;-55
2021/09/29 07:25:14;;;;;;;8.48;3.90;;;;;;;;;;4950020;28;20394;-56
2021/09/29 07:27:39;;;;;;;9.68;4.03;;;;;;;;;;4966502;28;20046;-56
2021/09/29 07:30:05;;;;;;;10.13;4.20;;;;;;;;;;4953586;28;20047;-56
2021/09/29 07:32:30;;;;;;;10.20;4.03;;;;;;;;;;4951981;28;20118;-56
2021/09/29 07:34:55;;;;;;;8.85;3.70;;;;;;;;;;4951972;28;20031;-56
2021/09/29 07:37:20;;;;;;;7.85;3.60;;;;;;;;;;4951590;28;20039;-57
2021/09/29 07:39:46;;;;;;;9.52;3.53;;;;;;;;;;4952200;28;20381;-57
2021/09/29 07:42:12;;;;;;;8.07;3.80;;;;;;;;;;4950382;28;20031;-57
2021/09/29 07:44:37;;;;;;;6.88;3.53;;;;;;;;;;4951252;28;20700;-56
2021/09/29 07:47:02;;;;;;;7.95;3.75;;;;;;;;;;4957012;28;20039;-57
2021/09/29 07:49:28;;;;;;;10.10;3.63;;;;;;;;;;4951596;28;20498;-59
2021/09/29 07:51:53;;;;;;;10.15;3.50;;;;;;;;;;4953630;28;20642;-56
2021/09/29 07:54:19;;;;;;;11.68;3.75;;;;;;;;;;4950165;28;20138;-57
2021/09/29 07:56:44;;;;;;;7.55;3.30;;;;;;;;;;4956246;28;20040;-56
2021/09/29 07:59:09;;;;;;;7.85;3.88;;;;;;;;;;4960452;28;20470;-57
2021/09/29 08:01:34;;;;;;;5.20;3.30;;;;;;;;;;4950324;28;20394;-57
2021/09/29 08:04:00;;;;;;;10.23;3.40;;;;;;;;;;4954217;28;20518;-57
2021/09/29 08:06:25;;;;;;;11.00;3.75;;;;;;;;;;4953102;28;20697;-57
2021/09/29 08:08:52;;;;;;;9.48;3.92;;;;;;;;;;4959501;28;20473;-57
2021/09/29 08:11:17;;;;;;;8.20;3.70;;;;;;;;;;4952841;28;20138;-57
2021/09/29 08:13:42;;;;;;;8.55;3.50;;;;;;;;;;4951297;28;20570;-57
2021/09/29 08:16:08;;;;;;;6.13;3.40;;;;;;;;;;4953111;28;20486;-57
2021/09/29 08:18:33;;;;;;;10.70;3.45;;;;;;;;;;4956908;28;20437;-57
2021/09/29 08:21:02;;;;;;;10.55;3.60;;;;;;;;;;4949008;28;20035;-57
2021/09/29 08:23:33;;;;;;;15.48;6.70;;;;;;;;;;4957781;28;20381;-57
2021/09/29 08:33:52;;;;;;;7.53;3.45;;;;;;;;;;4962844;28;20081;-57
2021/09/29 08:37:05;;;;;;;7.13;3.10;;;;;;;;;;4950662;28;20051;-57
2021/09/29 08:39:19;;;;;;;8.57;3.53;;;;;;;;;;4946761;28;20035;-57
2021/09/29 08:41:54;;;;;;;9.60;3.13;;;;;;;;;;4950988;28;20047;-57
2021/09/29 08:44:27;;;;;;;6.78;2.83;;;;;;;;;;4950912;28;20031;-57
2021/09/29 08:47:13;;;;;;;6.05;2.90;;;;;;;;;;4950347;28;20070;-57
2021/09/29 08:52:27;;;;;;;12.70;3.03;;;;;;;;;;4953175;28;20049;-57
2021/09/29 09:16:59;;;;;;;11.70;2.63;;;;;;;;;;4950492;28;20081;-59
2021/09/29 09:19:25;;;;;;;9.55;2.70;;;;;;;;;;4950862;28;20055;-58
2021/09/29 09:21:51;;;;;;;6.13;2.47;;;;;;;;;;4949873;28;20031;-59
2021/09/29 09:24:20;;;;;;;6.88;2.28;;;;;;;;;;4966454;28;20034;-57
2021/09/29 09:26:57;;;;;;;8.85;2.45;;;;;;;;;;4949732;28;20152;-58
2021/09/29 09:29:23;;;;;;;7.35;2.30;;;;;;;;;;4953505;28;20163;-58
2021/09/29 09:31:48;;;;;;;10.02;2.45;;;;;;;;;;4953432;28;20193;-57
2021/09/29 09:34:13;;;;;;;6.65;2.50;;;;;;;;;;4953129;28;20039;-57
2021/09/29 09:36:47;;;;;;;10.45;2.60;;;;;;;;;;4952154;28;20055;-57
2021/09/29 09:39:16;;;;;;;10.38;2.33;;;;;;;;;;4959689;28;20386;-57
2021/09/29 09:41:45;;;;;;;5.15;2.10;;;;;;;;;;4953624;28;20031;-57
2021/09/29 09:44:10;;;;;;;15.20;3.67;;;;;;;;;;4953624;28;20038;-57
2021/09/29 09:46:35;;;;;;;7.25;2.58;;;;;;;;;;4953737;28;20043;-57
2021/09/29 09:49:05;;;;;;;6.00;2.38;;;;;;;;;;4952876;28;20023;-57
2021/09/29 09:51:32;;;;;;;5.15;2.20;;;;;;;;;;4955823;28;20413;-58
2021/09/29 09:53:57;;;;;;;8.25;2.55;;;;;;;;;;4953889;28;20036;-57
2021/09/29 09:56:29;;;;;;;4.53;2.20;;;;;;;;;;4953423;28;20037;-57
2021/09/29 09:58:56;;;;;;;8.80;2.88;;;;;;;;;;4953991;28;20481;-57
2021/09/29 10:01:21;;;;;;;7.82;2.53;;;;;;;;;;4956343;28;20049;-57
2021/09/29 10:03:47;;;;;;;7.63;2.53;;;;;;;;;;4954917;28;20370;-57
2021/09/29 10:06:12;;;;;;;6.20;2.40;;;;;;;;;;4953604;28;20039;-57
2021/09/29 10:08:40;;;;;;;5.97;2.20;;;;;;;;;;4952770;28;20028;-57
2021/09/29 10:27:11;;;;;;;11.93;2.10;;;;;;;;;;4955213;28;20186;-58
2021/09/29 10:29:45;;;;;;;2.35;1.48;;;;;;;;;;4954892;28;20375;-57
2021/09/29 10:32:32;;;;;;;4.53;1.33;;;;;;;;;;4965877;28;20210;-58
2021/09/29 10:40:16;;;;;;;4.43;1.38;;;;;;;;;;4958907;28;20125;-57
2021/09/29 11:08:35;;;;;;;2.38;0.82;;;;;;;;;;4947732;28;20038;-58
2021/09/29 11:11:40;;;;;;;2.13;1.20;;;;;;;;;;4952152;28;20405;-59
2021/09/29 11:30:39;;;;;;;0.65;0.57;;;;;;;;;;4951470;28;20104;-58
2021/09/29 11:38:43;;;;;;;2.58;0.68;;;;;;;;;;4951635;28;20029;-58
2021/09/29 12:08:30;;;;;;;3.90;1.38;;;;;;;;;;4953017;28;20114;-58
2021/09/29 12:11:03;;;;;;;2.40;1.10;;;;;;;;;;4962063;28;20042;-58
2021/09/29 12:13:41;;;;;;;1.42;0.90;;;;;;;;;;4951726;28;20031;-58
2021/09/29 12:16:06;;;;;;;2.28;0.82;;;;;;;;;;4952482;28;20154;-58
2021/09/29 12:18:32;;;;;;;1.33;0.90;;;;;;;;;;4954147;28;21717;-58
2021/09/29 12:20:57;;;;;;;1.90;1.10;;;;;;;;;;4954460;28;20039;-58
2021/09/29 12:23:23;;;;;;;0.70;0.70;;;;;;;;;;4963483;28;20115;-58
2021/09/29 12:26:05;;;;;;;1.33;0.77;;;;;;;;;;4952954;28;20414;-58
2021/09/29 12:36:15;;;;;;;2.63;0.80;;;;;;;;;;4954830;28;20110;-58
2021/09/29 12:38:41;;;;;;;1.55;1.10;;;;;;;;;;4952163;28;20689;-58
2021/09/29 12:41:06;;;;;;;1.02;0.70;;;;;;;;;;4951916;28;20046;-58
2021/09/29 12:43:32;;;;;;;1.42;1.05;;;;;;;;;;4951446;28;20026;-57
2021/09/29 12:45:57;;;;;;;1.27;0.50;;;;;;;;;;4951087;28;20043;-58
2021/09/29 12:48:25;;;;;;;2.00;0.80;;;;;;;;;;4951456;28;20037;-58
2021/09/29 12:50:54;;;;;;;0.98;0.82;;;;;;;;;;4953807;28;20034;-58
2021/09/29 12:55:58;;;;;;;1.67;1.10;;;;;;;;;;4955192;28;20051;-57
2021/09/29 12:58:23;;;;;;;2.03;1.17;;;;;;;;;;4950756;28;20078;-57
2021/09/29 13:00:48;;;;;;;3.25;1.30;;;;;;;;;;4950744;28;20297;-59
2021/09/29 13:03:14;;;;;;;1.75;0.88;;;;;;;;;;4953178;28;20481;-58
2021/09/29 13:05:39;;;;;;;2.00;1.15;;;;;;;;;;4950332;28;20134;-58
2021/09/29 13:08:05;;;;;;;1.90;1.30;;;;;;;;;;4953849;28;20026;-58
2021/09/29 13:10:30;;;;;;;4.22;1.20;;;;;;;;;;4954806;28;20035;-58
2021/09/29 13:12:55;;;;;;;1.70;1.10;;;;;;;;;;4960692;28;20426;-58
2021/09/29 13:15:21;;;;;;;1.40;0.90;;;;;;;;;;4954540;28;20445;-58
2021/09/29 13:17:48;;;;;;;1.52;1.00;;;;;;;;;;4953823;28;20123;-58
2021/09/29 13:20:19;;;;;;;3.92;1.15;;;;;;;;;;4956603;28;20043;-58
2021/09/29 13:22:49;;;;;;;3.63;1.23;;;;;;;;;;4955154;28;20872;-58
2021/09/29 13:25:37;;;;;;;4.37;1.20;;;;;;;;;;4953022;28;20030;-59
2021/09/29 13:38:57;;;;;;;1.95;1.23;;;;;;;;;;4961035;28;20033;-58
2021/09/29 13:41:23;;;;;;;3.92;1.45;;;;;;;;;;4957370;28;20031;-58
2021/09/29 13:43:48;;;;;;;2.50;1.00;;;;;;;;;;4954484;28;20020;-58
2021/09/29 13:46:13;;;;;;;2.28;1.00;;;;;;;;;;4955409;28;20043;-58
2021/09/29 13:48:38;;;;;;;2.15;1.23;;;;;;;;;;4954135;28;20035;-58
2021/09/29 13:51:04;;;;;;;1.30;0.95;;;;;;;;;;4955176;28;20047;-59
2021/09/29 13:53:29;;;;;;;4.35;1.30;;;;;;;;;;4957369;28;20393;-58
2021/09/29 13:55:57;;;;;;;3.33;1.10;;;;;;;;;;4955574;28;20050;-58
2021/09/29 14:01:22;;;;;;;2.05;1.20;;;;;;;;;;4954223;28;20039;-59
2021/09/29 14:28:46;;;;;;;3.28;1.30;;;;;;;;;;4956956;28;20046;-58
2021/09/29 14:31:18;;;;;;;3.85;1.23;;;;;;;;;;4961668;28;20045;-58
2021/09/29 14:33:48;;;;;;;4.38;1.33;;;;;;;;;;4957302;28;20030;-58
2021/09/29 14:36:15;;;;;;;2.83;1.50;;;;;;;;;;4953187;28;20486;-58
2021/09/29 14:38:41;;;;;;;1.73;1.23;;;;;;;;;;4953489;28;20110;-58
2021/09/29 14:41:06;;;;;;;4.95;1.25;;;;;;;;;;4957124;28;20514;-58
2021/09/29 14:43:31;;;;;;;6.60;1.20;;;;;;;;;;4951855;28;20722;-58
2021/09/29 14:45:56;;;;;;;3.97;1.17;;;;;;;;;;4955174;28;20042;-58
2021/09/29 14:48:22;;;;;;;4.07;1.30;;;;;;;;;;4951954;28;20106;-58
2021/09/29 14:50:49;;;;;;;2.30;1.20;;;;;;;;;;4958829;28;20035;-58
2021/09/29 14:53:14;;;;;;;3.22;1.33;;;;;;;;;;4951967;28;20201;-59
2021/09/29 14:55:40;;;;;;;1.77;1.02;;;;;;;;;;4952867;28;20122;-58
2021/09/29 14:58:06;;;;;;;3.22;1.25;;;;;;;;;;4962386;28;20030;-58
2021/09/29 15:00:32;;;;;;;5.57;1.40;;;;;;;;;;4961233;28;20401;-58
2021/09/29 15:02:59;;;;;;;2.65;1.13;;;;;;;;;;4953600;28;20031;-58
2021/09/29 15:05:24;;;;;;;4.75;1.33;;;;;;;;;;4961308;28;20035;-59
2021/09/29 15:07:49;;;;;;;1.55;1.15;;;;;;;;;;4954518;28;20384;-58
2021/09/29 15:10:14;;;;;;;2.03;1.15;;;;;;;;;;4952592;28;20094;-59
2021/09/29 15:12:40;;;;;;;4.28;1.33;;;;;;;;;;4952471;28;20078;-59
2021/09/29 15:17:50;;;;;;;2.92;1.20;;;;;;;;;;4952550;28;20026;-58
2021/09/29 15:28:00;;;;;;;2.95;1.30;;;;;;;;;;4951432;28;20058;-58
2021/09/29 15:31:20;;;;;;;5.53;1.40;;;;;;;;;;4951340;28;20484;-58
2021/09/29 15:47:35;;;;;;;2.45;1.20;;;;;;;;;;4924502;29;20059;-58
2021/09/29 15:52:55;;;;;;;1.80;1.20;;;;;;;;;;4950544;28;20131;-59
2021/09/29 16:04:02;;;;;;;2.33;1.30;;;;;;;;;;4951124;28;20106;-57
2021/09/29 16:32:20;;;;;;;3.75;1.40;;;;;;;;;;4963036;28;20085;-59
2021/09/29 16:34:48;;;;;;;3.35;1.30;;;;;;;;;;4963023;28;20023;-59
2021/09/29 16:37:13;;;;;;;4.45;1.83;;;;;;;;;;4956468;28;20067;-57
2021/09/29 16:39:39;;;;;;;1.90;1.25;;;;;;;;;;4950540;28;20066;-58
2021/09/29 16:42:04;;;;;;;3.97;1.10;;;;;;;;;;4950403;28;20170;-57
2021/09/29 16:44:29;;;;;;;2.95;1.50;;;;;;;;;;4953680;28;20039;-57
2021/09/29 16:46:56;;;;;;;3.33;1.30;;;;;;;;;;4950348;28;20038;-59
2021/09/29 16:49:27;;;;;;;3.45;1.17;;;;;;;;;;4953236;28;20202;-57
2021/09/29 16:52:08;;;;;;;2.90;1.30;;;;;;;;;;4950131;28;20130;-59
2021/09/29 16:54:33;;;;;;;2.53;1.33;;;;;;;;;;4954443;28;20080;-58
2021/09/29 16:56:58;;;;;;;3.10;1.30;;;;;;;;;;4952564;28;20030;-59
2021/09/29 17:01:51;;;;;;;4.22;1.77;;;;;;;;;;4954927;28;20122;-59
2021/09/29 17:04:16;;;;;;;3.92;2.00;;;;;;;;;;4950532;28;20082;-59
2021/09/29 17:06:42;;;;;;;4.38;2.97;;;;;;;;;;4958759;28;20043;-59
2021/09/29 17:09:07;;;;;;;7.65;5.93;;;;;;;;;;4950739;28;20027;-58
2021/09/29 17:11:32;;;;;;;6.05;3.95;;;;;;;;;;4948978;28;20050;-59
2021/09/29 17:13:57;;;;;;;5.55;4.05;;;;;;;;;;4952693;28;20023;-58
2021/09/29 17:16:24;;;;;;;5.57;4.00;;;;;;;;;;4947600;28;20069;-59
2021/09/29 17:18:49;;;;;;;7.80;4.85;;;;;;;;;;4952598;28;20113;-58
2021/09/29 17:21:15;;;;;;;6.32;4.38;;;;;;;;;;4949914;28;20047;-58
2021/09/29 17:23:41;;;;;;;3.67;2.35;;;;;;;;;;4949956;28;20042;-58
2021/09/29 17:26:06;;;;;;;3.08;2.10;;;;;;;;;;4951475;28;20043;-59
2021/09/29 17:28:32;;;;;;;4.00;2.00;;;;;;;;;;4948539;28;20050;-58
2021/09/29 17:31:06;;;;;;;6.57;4.28;;;;;;;;;;4948786;28;20066;-58
2021/09/29 17:54:38;;;;;;;2.15;1.27;;;;;;;;;;4950658;28;20572;-58
2021/09/29 17:57:03;;;;;;;5.38;1.50;;;;;;;;;;4951652;28;20024;-58
2021/09/29 17:59:28;;;;;;;3.75;1.40;;;;;;;;;;4953345;28;20035;-58
2021/09/29 18:01:57;;;;;;;3.35;1.40;;;;;;;;;;4953162;28;20114;-58
2021/09/29 18:04:24;;;;;;;3.90;2.13;;;;;;;;;;4954757;28;20060;-59
2021/09/29 18:07:23;;;;;;;10.43;6.72;;;;;;;;;;4953100;28;20488;-59
2021/09/29 18:09:35;;;;;;;13.50;8.35;;;;;;;;;;4953490;28;20449;-59
2021/09/29 18:12:00;;;;;;;7.57;4.10;;;;;;;;;;4952104;28;20094;-59
2021/09/29 18:14:26;;;;;;;5.53;2.25;;;;;;;;;;4953511;28;20149;-59
2021/09/29 18:16:52;;;;;;;2.55;1.50;;;;;;;;;;4958211;28;20040;-59
2021/09/29 18:19:19;;;;;;;3.53;1.40;;;;;;;;;;4957167;28;20037;-58
2021/09/29 18:21:48;;;;;;;3.70;1.50;;;;;;;;;;4952566;28;20039;-59
2021/09/29 18:24:13;;;;;;;2.08;1.45;;;;;;;;;;4953511;28;20070;-57
2021/09/29 18:26:38;;;;;;;4.82;1.33;;;;;;;;;;4957115;28;20489;-57
2021/09/29 18:29:06;;;;;;;3.40;1.30;;;;;;;;;;4952443;28;20059;-57
2021/09/29 18:31:31;;;;;;;3.45;1.45;;;;;;;;;;4958967;28;20343;-57
2021/09/29 18:33:56;;;;;;;3.45;1.50;;;;;;;;;;4958348;28;20039;-57
2021/09/29 18:36:24;;;;;;;3.97;1.60;;;;;;;;;;4952355;28;20046;-57
2021/09/29 18:38:50;;;;;;;10.05;2.88;;;;;;;;;;4952473;28;20488;-58
2021/09/29 18:41:18;;;;;;;2.63;1.40;;;;;;;;;;4952585;28;20098;-57
2021/09/29 18:43:43;;;;;;;3.97;1.60;;;;;;;;;;4954769;28;20478;-57
2021/09/29 18:46:08;;;;;;;2.13;1.35;;;;;;;;;;4951827;28;20122;-57
2021/09/29 18:48:34;;;;;;;6.43;1.40;;;;;;;;;;4952210;28;20122;-57
2021/09/29 18:50:59;;;;;;;4.65;1.55;;;;;;;;;;4952451;28;20078;-57
2021/09/29 18:53:29;;;;;;;5.93;1.67;;;;;;;;;;4956605;28;20034;-57
2021/09/29 18:56:05;;;;;;;2.47;1.40;;;;;;;;;;4959549;28;20273;-57
2021/09/29 19:04:05;;;;;;;3.55;1.60;;;;;;;;;;4955452;28;20070;-57